Time;durP1;ratioP1;P1;durP2;ratioP2;P2;SDS_P1;SDS_P2;PMS_P1;PMS_P2;Temp;Humidity;BMP_temperature;BMP_pressure;BME280_temperature;BME280_humidity;BME280_pressure;Samples;Min_cycle;Max_cycle;Signal;HPM_P1;HPM_P2
2022/03/22 00:00:49;;;;;;;7.47;3.43;;;;;;;7.28;36.37;100359.06;5098027;28;20247;-87
2022/03/22 00:03:15;;;;;;;9.13;3.70;;;;;;;7.27;36.95;100357.34;5098816;28;20186;-87
2022/03/22 00:05:42;;;;;;;6.00;3.17;;;;;;;7.44;36.93;100355.28;5116206;28;20172;-88
2022/03/22 00:08:09;;;;;;;8.67;3.00;;;;;;;7.25;37.64;100360.00;5115794;28;20575;-87
2022/03/22 00:10:36;;;;;;;8.63;3.90;;;;;;;7.43;37.29;100351.81;5115806;28;20183;-87
2022/03/22 00:13:05;;;;;;;5.80;2.63;;;;;;;7.40;37.27;100353.59;5115720;28;20215;-87
2022/03/22 00:15:35;;;;;;;7.50;4.40;;;;;;;7.20;37.33;100342.72;5116275;28;20176;-87
2022/03/22 00:18:01;;;;;;;7.77;3.77;;;;;;;7.31;37.58;100341.59;5097618;28;20229;-87
2022/03/22 00:20:27;;;;;;;8.77;3.93;;;;;;;7.15;37.18;100342.81;5116199;28;20287;-86
2022/03/22 00:22:54;;;;;;;9.37;3.70;;;;;;;7.12;37.74;100342.00;5097939;28;20191;-86
2022/03/22 00:25:20;;;;;;;10.50;3.63;;;;;;;6.92;38.16;100333.72;5097532;28;20206;-86
2022/03/22 00:27:52;;;;;;;6.17;2.87;;;;;;;6.96;37.73;100332.75;5115698;28;20675;-88
2022/03/22 00:30:24;;;;;;;9.70;3.83;;;;;;;7.15;37.90;100328.91;5115504;28;20609;-87
2022/03/22 00:32:54;;;;;;;4.67;3.17;;;;;;;7.06;37.38;100331.69;5115758;28;20168;-86
2022/03/22 00:35:22;;;;;;;12.03;5.23;;;;;;;7.09;37.94;100323.81;5097791;28;20190;-87
2022/03/22 00:37:51;;;;;;;13.57;4.10;;;;;;;7.22;38.40;100322.69;5097313;28;20175;-86
2022/03/22 00:40:18;;;;;;;12.23;4.60;;;;;;;7.32;37.51;100326.81;5097273;28;20524;-87
2022/03/22 00:42:46;;;;;;;10.87;4.17;;;;;;;7.36;37.18;100328.50;5097794;28;20233;-88
2022/03/22 00:45:32;;;;;;;13.10;4.93;;;;;;;7.39;37.09;100331.00;5097115;28;20271;-87
2022/03/22 00:47:59;;;;;;;9.40;4.30;;;;;;;7.37;37.40;100327.56;5115830;28;20225;-87
2022/03/22 00:50:30;;;;;;;9.37;4.50;;;;;;;7.35;37.37;100319.78;5097113;28;20175;-87
2022/03/22 00:52:57;;;;;;;9.00;4.03;;;;;;;7.42;37.48;100310.94;5097974;28;20271;-87
2022/03/22 00:55:24;;;;;;;7.90;3.20;;;;;;;7.56;37.23;100318.47;5114921;28;20188;-87
2022/03/22 00:57:51;;;;;;;12.87;5.50;;;;;;;7.28;37.76;100318.22;5115186;28;20249;-87
2022/03/22 01:00:17;;;;;;;11.03;5.43;;;;;;;6.93;38.46;100314.56;5114838;28;20232;-87
2022/03/22 01:02:48;;;;;;;12.20;4.20;;;;;;;6.90;38.85;100318.09;5097107;28;20219;-87
2022/03/22 01:05:15;;;;;;;9.17;3.77;;;;;;;7.11;38.00;100319.41;5096872;28;20599;-87
2022/03/22 01:07:42;;;;;;;8.60;4.10;;;;;;;7.24;37.69;100310.47;5096627;28;20196;-87
2022/03/22 01:10:09;;;;;;;8.33;3.30;;;;;;;6.84;37.83;100301.72;5096734;28;20218;-87
2022/03/22 01:12:37;;;;;;;8.67;4.13;;;;;;;6.68;38.56;100308.97;5114571;28;20213;-86
2022/03/22 01:15:06;;;;;;;10.37;4.47;;;;;;;6.82;38.55;100301.72;5114598;28;20172;-88
2022/03/22 01:17:33;;;;;;;5.43;3.37;;;;;;;7.04;38.01;100295.22;5096775;28;20182;-87
2022/03/22 01:19:59;;;;;;;10.70;3.97;;;;;;;7.16;37.54;100296.72;5096782;28;20184;-86
2022/03/22 01:22:25;;;;;;;7.93;4.10;;;;;;;7.17;37.28;100293.22;5096456;28;20251;-86
2022/03/22 01:24:54;;;;;;;21.53;4.80;;;;;;;7.16;37.30;100291.50;5096431;28;20175;-85
2022/03/22 01:27:22;;;;;;;7.50;3.93;;;;;;;7.14;37.25;100288.06;5096293;28;20181;-86
2022/03/22 01:29:51;;;;;;;10.17;3.23;;;;;;;7.07;37.51;100286.50;5095928;28;20182;-86
2022/03/22 01:32:16;;;;;;;10.67;4.23;;;;;;;7.17;36.90;100285.41;5096601;28;20264;-87
2022/03/22 01:34:44;;;;;;;8.40;3.83;;;;;;;7.08;37.12;100280.38;5096228;28;20633;-87
2022/03/22 01:37:11;;;;;;;10.07;4.23;;;;;;;7.03;37.34;100284.81;5096470;28;20554;-87
2022/03/22 01:39:37;;;;;;;5.80;3.60;;;;;;;7.23;36.99;100283.53;5096427;28;20296;-87
2022/03/22 01:42:03;;;;;;;15.40;2.70;;;;;;;7.31;36.45;100278.16;5096119;28;20185;-86
2022/03/22 01:44:29;;;;;;;5.00;2.10;;;;;;;7.05;36.30;100273.47;5096023;28;20183;-87
2022/03/22 01:47:03;;;;;;;3.33;1.80;;;;;;;7.05;36.29;100272.63;5096274;28;20183;-88
2022/03/22 01:49:29;;;;;;;5.30;2.97;;;;;;;7.02;36.23;100270.09;5096777;28;20279;-87
2022/03/22 01:51:55;;;;;;;6.17;2.80;;;;;;;7.23;35.91;100270.47;5095892;28;20237;-88
2022/03/22 01:54:21;;;;;;;5.50;2.30;;;;;;;7.22;35.57;100267.91;5113838;28;20709;-89
2022/03/22 01:56:47;;;;;;;4.73;1.83;;;;;;;7.22;35.38;100268.78;5113851;28;20255;-87
2022/03/22 01:59:12;;;;;;;9.00;2.63;;;;;;;7.20;35.54;100272.31;5113744;28;20466;-88
2022/03/22 02:07:08;;;;;;;4.40;2.33;;;;;;;7.44;34.82;100263.97;5114560;28;20254;-86
2022/03/22 02:09:33;;;;;;;5.73;3.10;;;;;;;7.55;35.05;100264.56;5113607;28;20578;-86
2022/03/22 02:11:59;;;;;;;5.90;2.40;;;;;;;7.69;34.63;100262.53;5113490;28;20175;-89
2022/03/22 02:14:25;;;;;;;3.67;2.40;;;;;;;7.57;34.09;100256.72;5113932;28;20167;-88
2022/03/22 02:16:51;;;;;;;5.93;2.70;;;;;;;7.74;34.20;100255.44;5113893;28;20163;-87
2022/03/22 02:19:17;;;;;;;6.07;2.60;;;;;;;7.79;33.84;100247.50;5113655;28;20167;-89
2022/03/22 02:21:43;;;;;;;8.70;1.83;;;;;;;7.88;33.42;100236.84;5113585;28;20172;-87
2022/03/22 02:24:09;;;;;;;5.27;2.60;;;;;;;7.95;33.11;100244.50;5113537;28;20172;-87
2022/03/22 02:26:36;;;;;;;4.47;1.83;;;;;;;8.00;32.63;100236.53;5095493;28;20189;-87
2022/03/22 02:29:03;;;;;;;10.00;2.67;;;;;;;8.22;32.84;100237.72;5113403;28;20192;-87
2022/03/22 02:31:30;;;;;;;7.70;2.80;;;;;;;8.14;32.80;100230.97;5113382;28;20175;-88
2022/03/22 02:33:57;;;;;;;3.93;2.40;;;;;;;8.37;32.23;100232.13;5113496;28;20168;-88
2022/03/22 02:36:23;;;;;;;4.87;3.00;;;;;;;8.18;32.50;100235.22;5096325;28;20175;-88
2022/03/22 02:38:49;;;;;;;9.43;3.23;;;;;;;8.43;32.83;100228.50;5095702;28;20241;-87
2022/03/22 02:41:27;;;;;;;5.30;2.57;;;;;;;8.47;33.02;100222.28;5116067;28;20167;-87
2022/03/22 02:43:54;;;;;;;8.13;2.93;;;;;;;8.22;33.43;100226.44;5117632;28;20160;-87
2022/03/22 02:46:20;;;;;;;6.63;3.10;;;;;;;8.24;32.94;100215.03;5099491;28;20271;-88
2022/03/22 02:48:46;;;;;;;5.33;2.93;;;;;;;8.30;33.05;100214.91;5117306;28;20274;-89
2022/03/22 02:51:12;;;;;;;10.47;2.93;;;;;;;8.40;32.12;100216.38;5099684;28;20175;-88
2022/03/22 02:53:38;;;;;;;5.37;2.57;;;;;;;8.46;32.78;100215.38;5099422;28;20172;-88
2022/03/22 02:56:04;;;;;;;7.37;2.73;;;;;;;8.65;32.54;100212.19;5099325;28;20224;-89
2022/03/22 02:58:29;;;;;;;5.73;2.80;;;;;;;8.56;32.70;100212.47;5099275;28;20183;-87
2022/03/22 03:00:55;;;;;;;5.70;1.70;;;;;;;8.55;32.34;100209.88;5117193;28;20178;-88
2022/03/22 03:03:22;;;;;;;5.80;2.83;;;;;;;8.47;32.50;100215.31;5117443;28;20352;-88
2022/03/22 03:05:49;;;;;;;5.70;2.80;;;;;;;8.28;33.37;100208.03;5117694;28;20170;-87
2022/03/22 03:08:15;;;;;;;10.63;4.13;;;;;;;8.40;33.21;100197.25;5116984;28;20187;-88
2022/03/22 03:10:41;;;;;;;5.83;3.03;;;;;;;8.44;33.23;100204.06;5116996;28;20176;-88
2022/03/22 03:13:07;;;;;;;3.43;1.87;;;;;;;8.45;33.41;100192.75;5117646;28;20220;-89
2022/03/22 03:15:32;;;;;;;7.30;2.63;;;;;;;8.23;33.24;100194.19;5099151;28;20202;-87
2022/03/22 03:17:58;;;;;;;4.93;2.80;;;;;;;8.34;33.61;100185.19;5117147;28;20175;-88
2022/03/22 03:20:24;;;;;;;4.23;2.53;;;;;;;8.16;33.87;100184.78;5098872;28;20172;-87
2022/03/22 03:22:49;;;;;;;5.63;2.50;;;;;;;8.22;33.67;100176.78;5098772;28;20208;-87
2022/03/22 03:25:15;;;;;;;5.33;3.00;;;;;;;8.39;33.46;100179.84;5116698;28;20167;-88
2022/03/22 03:27:41;;;;;;;7.03;2.83;;;;;;;8.20;33.97;100183.81;5116614;28;20191;-88
2022/03/22 03:30:07;;;;;;;3.47;1.93;;;;;;;8.18;33.69;100188.22;5116613;28;20682;-88
2022/03/22 03:32:34;;;;;;;6.60;2.97;;;;;;;8.09;33.24;100180.63;5098813;28;20183;-89
2022/03/22 03:35:00;;;;;;;8.07;2.57;;;;;;;7.99;33.58;100182.63;5116481;28;20171;-88
2022/03/22 03:37:28;;;;;;;6.37;2.83;;;;;;;7.84;33.23;100186.47;5098540;28;20254;-88
2022/03/22 03:39:54;;;;;;;4.40;2.27;;;;;;;8.12;33.78;100185.78;5116767;28;20174;-89
2022/03/22 03:42:20;;;;;;;4.57;2.70;;;;;;;8.15;34.07;100178.69;5116449;28;20258;-88
2022/03/22 03:47:30;;;;;;;4.40;1.83;;;;;;;8.05;34.39;100177.22;5116617;28;20607;-89
2022/03/22 03:49:59;;;;;;;7.67;2.43;;;;;;;7.94;34.67;100176.63;5098375;28;20215;-90
2022/03/22 03:52:27;;;;;;;5.43;2.50;;;;;;;7.79;34.88;100174.41;5097887;28;20504;-88
2022/03/22 03:54:53;;;;;;;7.50;2.87;;;;;;;7.69;34.48;100178.16;5098531;28;20239;-90
2022/03/22 03:57:20;;;;;;;5.23;2.73;;;;;;;7.89;34.93;100181.13;5098998;28;20171;-87
2022/03/22 03:59:45;;;;;;;5.90;2.20;;;;;;;7.58;34.65;100183.63;5116167;28;20168;-85
2022/03/22 04:02:11;;;;;;;5.90;2.63;;;;;;;7.47;35.72;100185.63;5116315;28;20375;-88
2022/03/22 04:04:38;;;;;;;7.47;2.27;;;;;;;7.48;35.43;100184.75;5115935;28;20172;-88
2022/03/22 04:07:05;;;;;;;3.80;2.17;;;;;;;7.37;35.64;100194.56;5116083;28;20544;-88
2022/03/22 04:09:32;;;;;;;5.27;3.17;;;;;;;7.57;36.47;100184.53;5115944;28;20195;-89
2022/03/22 04:11:57;;;;;;;6.47;3.10;;;;;;;7.61;36.26;100170.50;5115747;28;20174;-87
2022/03/22 04:14:23;;;;;;;6.13;2.93;;;;;;;7.75;35.83;100181.47;5116109;28;20156;-88
2022/03/22 04:16:51;;;;;;;9.10;3.73;;;;;;;7.72;35.96;100183.31;5098040;28;20224;-88
2022/03/22 04:19:17;;;;;;;6.57;2.17;;;;;;;7.76;35.48;100175.34;5097824;28;20172;-89
2022/03/22 04:21:44;;;;;;;3.93;2.23;;;;;;;7.66;36.25;100179.09;5097758;28;20656;-89
2022/03/22 04:24:10;;;;;;;5.83;2.47;;;;;;;7.76;36.21;100191.00;5116258;28;20164;-89
2022/03/22 04:26:38;;;;;;;5.77;2.70;;;;;;;7.62;36.39;100182.69;5098711;28;20187;-89
2022/03/22 04:34:32;;;;;;;6.57;2.87;;;;;;;7.49;37.98;100175.16;5115728;28;20193;-87
2022/03/22 04:36:59;;;;;;;7.77;3.57;;;;;;;7.38;37.61;100181.50;5115939;28;20604;-90
2022/03/22 04:39:26;;;;;;;5.87;2.77;;;;;;;7.41;37.47;100191.88;5097902;28;20601;-88
2022/03/22 04:41:53;;;;;;;8.50;3.53;;;;;;;7.55;36.66;100186.31;5097309;28;20185;-88
2022/03/22 04:44:18;;;;;;;8.27;3.10;;;;;;;7.40;37.23;100178.84;5097679;28;20177;-87
2022/03/22 04:46:44;;;;;;;7.17;3.33;;;;;;;7.48;37.33;100179.53;5097253;28;20270;-90
2022/03/22 04:49:10;;;;;;;7.07;4.07;;;;;;;7.58;37.01;100186.22;5097095;28;20234;-88
2022/03/22 04:57:04;;;;;;;7.20;3.57;;;;;;;7.70;37.34;100164.22;5115331;28;20158;-87
2022/03/22 04:59:29;;;;;;;7.90;2.73;;;;;;;7.48;36.74;100163.88;5114939;28;20168;-89
2022/03/22 05:01:55;;;;;;;8.87;3.73;;;;;;;7.58;37.27;100167.97;5097063;28;20182;-89
2022/03/22 05:04:21;;;;;;;10.87;3.60;;;;;;;7.78;36.72;100152.66;5113859;28;20572;-89
2022/03/22 05:06:47;;;;;;;9.47;3.63;;;;;;;7.93;37.10;100152.31;5096920;28;20172;-89
2022/03/22 05:09:12;;;;;;;8.63;3.57;;;;;;;7.79;37.13;100157.00;5114616;28;20572;-91
2022/03/22 05:11:38;;;;;;;7.70;3.23;;;;;;;7.85;36.78;100158.63;5096691;28;20691;-88
2022/03/22 05:14:04;;;;;;;10.87;3.77;;;;;;;8.04;36.90;100158.09;5096576;28;20203;-88
2022/03/22 05:16:30;;;;;;;12.57;3.70;;;;;;;8.19;36.46;100154.22;5096890;28;20203;-89
2022/03/22 05:18:56;;;;;;;13.10;3.60;;;;;;;8.25;36.37;100153.22;5114509;28;20591;-90
2022/03/22 05:21:23;;;;;;;11.23;4.73;;;;;;;8.47;36.58;100155.22;5114499;28;20341;-88
2022/03/22 05:23:48;;;;;;;7.80;4.20;;;;;;;8.54;36.55;100148.91;5114362;28;20255;-87
2022/03/22 05:26:14;;;;;;;5.63;3.00;;;;;;;8.54;36.27;100161.16;5114932;28;20254;-88
2022/03/22 05:28:40;;;;;;;7.57;3.53;;;;;;;8.32;36.14;100153.03;5114275;28;20227;-91
2022/03/22 05:31:08;;;;;;;6.20;3.27;;;;;;;8.33;36.28;100154.72;5114389;28;20254;-88
2022/03/22 05:33:36;;;;;;;6.20;2.73;;;;;;;8.47;36.79;100149.13;5114556;28;20168;-88
2022/03/22 05:36:02;;;;;;;11.53;3.90;;;;;;;8.28;36.59;100142.72;5114228;28;20190;-90
2022/03/22 05:38:28;;;;;;;4.60;2.87;;;;;;;8.27;36.62;100152.31;5096567;28;20552;-87
2022/03/22 05:40:55;;;;;;;8.07;3.87;;;;;;;8.28;36.78;100163.63;5096846;28;20228;-88
2022/03/22 05:43:21;;;;;;;7.67;2.93;;;;;;;8.04;37.02;100150.25;5114248;28;20179;-90
2022/03/22 05:45:48;;;;;;;6.97;3.37;;;;;;;8.20;37.02;100155.94;5096135;28;20551;-88
2022/03/22 05:48:20;;;;;;;7.43;3.67;;;;;;;8.13;37.09;100150.91;5114236;28;20276;-90
2022/03/22 05:50:46;;;;;;;7.60;3.13;;;;;;;8.40;37.41;100152.81;5113861;28;20589;-89
2022/03/22 05:53:12;;;;;;;5.10;3.00;;;;;;;8.46;36.72;100158.72;5114235;28;20168;-90
2022/03/22 05:55:39;;;;;;;9.87;5.13;;;;;;;8.36;36.72;100156.44;5096193;28;20272;-91
2022/03/22 05:58:06;;;;;;;5.90;2.60;;;;;;;8.54;36.88;100150.69;5096123;28;20212;-89
2022/03/22 06:00:31;;;;;;;10.37;3.93;;;;;;;8.71;36.36;100153.66;5114212;28;20174;-92
2022/03/22 06:02:58;;;;;;;13.53;3.97;;;;;;;8.96;35.77;100154.66;5113847;28;20168;-90
2022/03/22 06:05:28;;;;;;;8.77;3.10;;;;;;;9.22;35.13;100144.25;5114518;28;20180;-90
2022/03/22 06:07:58;;;;;;;8.60;3.33;;;;;;;9.32;35.20;100157.94;5114079;28;20197;-92
2022/03/22 06:10:23;;;;;;;4.13;2.73;;;;;;;9.50;34.28;100138.16;5096399;28;20170;-89
2022/03/22 06:12:56;;;;;;;6.50;2.93;;;;;;;9.78;34.63;100144.19;5113881;28;20294;-90
2022/03/22 06:15:23;;;;;;;6.50;3.07;;;;;;;9.64;34.82;100143.81;5113818;28;20251;-91
2022/03/22 06:17:58;;;;;;;8.00;3.27;;;;;;;9.57;35.25;100134.44;5113992;28;20174;-90
2022/03/22 06:20:28;;;;;;;7.03;3.07;;;;;;;9.59;34.75;100135.25;5096772;28;20178;-91
2022/03/22 06:22:55;;;;;;;7.87;3.93;;;;;;;9.72;34.87;100147.03;5096014;28;20170;-89
2022/03/22 06:25:21;;;;;;;7.70;3.30;;;;;;;9.70;34.87;100143.59;5114246;28;20167;-91
2022/03/22 06:27:49;;;;;;;6.30;3.00;;;;;;;9.78;34.19;100136.34;5113775;28;20648;-90
2022/03/22 06:30:17;;;;;;;7.73;3.70;;;;;;;9.85;34.30;100143.94;5096018;28;20194;-88
2022/03/22 06:32:50;;;;;;;8.60;3.30;;;;;;;9.80;34.95;100151.09;5096043;28;20216;-93
2022/03/22 06:35:18;;;;;;;6.93;3.97;;;;;;;9.76;35.42;100146.03;5114234;28;20174;-90
2022/03/22 06:37:44;;;;;;;8.13;3.77;;;;;;;9.73;35.05;100151.34;5096580;28;20320;-89
2022/03/22 06:40:11;;;;;;;12.80;4.67;;;;;;;9.97;35.28;100147.91;5113575;28;20172;-94
2022/03/22 06:42:37;;;;;;;6.33;3.43;;;;;;;9.98;34.75;100154.03;5095891;28;20179;-90
2022/03/22 06:45:05;;;;;;;9.37;3.63;;;;;;;10.00;35.11;100150.44;5095725;28;20274;-89
2022/03/22 06:47:31;;;;;;;7.83;3.43;;;;;;;9.85;35.41;100150.97;5095496;28;20180;-91
2022/03/22 06:49:57;;;;;;;6.73;3.50;;;;;;;10.10;36.11;100157.06;5113429;28;20175;-91
2022/03/22 06:52:22;;;;;;;8.87;4.07;;;;;;;10.40;35.70;100158.63;5113432;28;20659;-91
2022/03/22 06:54:48;;;;;;;10.33;4.07;;;;;;;10.39;35.49;100150.84;5113384;28;20183;-90
2022/03/22 06:57:14;;;;;;;8.93;3.33;;;;;;;10.58;35.15;100153.66;5113586;28;20560;-91
2022/03/22 06:59:39;;;;;;;8.13;3.77;;;;;;;10.52;34.65;100146.88;5095848;28;20188;-91
2022/03/22 07:02:05;;;;;;;17.00;5.03;;;;;;;10.52;33.97;100161.75;5095618;28;20280;-93
2022/03/22 07:04:31;;;;;;;8.07;3.97;;;;;;;10.46;34.83;100149.72;5095359;28;20179;-92
2022/03/22 07:06:57;;;;;;;8.37;3.57;;;;;;;10.47;34.38;100157.53;5113539;28;20179;-92
2022/03/22 07:09:23;;;;;;;7.83;3.57;;;;;;;10.83;34.20;100147.44;5095372;28;20210;-92
2022/03/22 07:11:52;;;;;;;9.93;4.00;;;;;;;10.65;34.45;100156.00;5095518;28;20186;-90
2022/03/22 07:14:25;;;;;;;10.00;3.83;;;;;;;10.82;33.86;100147.53;5113747;28;20485;-91
2022/03/22 07:16:51;;;;;;;5.77;3.07;;;;;;;10.98;33.77;100146.00;5095282;28;20685;-89
2022/03/22 07:19:18;;;;;;;6.47;2.90;;;;;;;10.98;33.35;100141.63;5095317;28;20259;-90
2022/03/22 07:21:45;;;;;;;8.13;3.63;;;;;;;10.93;32.63;100142.69;5095307;28;20255;-88
2022/03/22 07:24:12;;;;;;;9.10;3.00;;;;;;;10.99;33.41;100137.22;5113428;28;20168;-91
2022/03/22 07:26:38;;;;;;;7.07;3.53;;;;;;;11.28;32.68;100129.09;5113045;28;20180;-91
2022/03/22 07:29:05;;;;;;;5.40;3.00;;;;;;;11.39;32.33;100126.03;5099129;28;20596;-90
2022/03/22 07:31:31;;;;;;;5.53;3.30;;;;;;;11.74;32.29;100124.63;5099054;28;20306;-90
2022/03/22 07:33:57;;;;;;;5.50;2.67;;;;;;;12.16;31.87;100109.66;5116948;28;20583;-93
2022/03/22 07:36:23;;;;;;;8.60;3.97;;;;;;;12.51;32.00;100111.59;5116942;28;20176;-90
2022/03/22 07:38:49;;;;;;;11.30;4.37;;;;;;;12.81;30.64;100104.09;5116901;28;20578;-92
2022/03/22 07:41:14;;;;;;;5.37;2.60;;;;;;;12.87;30.94;100096.75;5116941;28;20179;-90
2022/03/22 07:43:43;;;;;;;9.80;4.37;;;;;;;12.89;30.79;100091.44;5098948;28;20172;-89
2022/03/22 07:46:09;;;;;;;11.67;3.60;;;;;;;12.75;30.89;100105.22;5116767;28;20177;-93
2022/03/22 07:48:34;;;;;;;8.23;3.33;;;;;;;13.00;31.00;100104.91;5099055;28;20189;-94
2022/03/22 07:53:49;;;;;;;3.87;2.27;;;;;;;12.86;31.05;100097.69;5088141;28;20770;-92
2022/03/22 07:56:17;;;;;;;7.97;3.37;;;;;;;12.57;31.04;100100.81;5116614;28;20247;-92
2022/03/22 07:58:43;;;;;;;7.37;3.63;;;;;;;12.78;31.57;100094.56;5116664;28;20169;-95
2022/03/22 08:01:08;;;;;;;4.30;2.30;;;;;;;12.57;31.94;100090.28;5099318;28;20203;-89
2022/03/22 08:03:34;;;;;;;6.43;3.60;;;;;;;12.62;32.21;100090.06;5116775;28;20635;-91
2022/03/22 08:06:00;;;;;;;11.13;3.80;;;;;;;12.77;32.35;100077.06;5098306;28;20645;-93
2022/03/22 08:08:25;;;;;;;11.50;4.07;;;;;;;13.10;32.16;100079.06;5098715;28;20188;-92
2022/03/22 08:10:51;;;;;;;8.80;3.83;;;;;;;13.06;31.88;100066.94;5098515;28;20175;-94
2022/03/22 08:13:17;;;;;;;11.63;3.93;;;;;;;13.24;32.48;100061.66;5116484;28;20193;-95
2022/03/22 08:15:45;;;;;;;5.63;2.43;;;;;;;13.48;31.84;100060.47;5098741;28;20193;-95
2022/03/22 08:18:10;;;;;;;6.43;2.83;;;;;;;13.38;32.18;100050.47;5099014;28;20194;-92
2022/03/22 08:20:36;;;;;;;7.67;2.47;;;;;;;13.57;32.67;100053.03;5098142;28;20269;-88
2022/03/22 08:23:04;;;;;;;11.43;4.03;;;;;;;13.74;32.89;100038.06;5098408;28;20174;-92
2022/03/22 08:25:38;;;;;;;4.50;2.10;;;;;;;13.64;33.20;100034.22;5098310;28;20188;-89
2022/03/22 08:28:05;;;;;;;6.63;3.20;;;;;;;13.82;33.82;100037.69;5099252;28;20179;-94
2022/03/22 08:30:32;;;;;;;5.40;2.00;;;;;;;13.98;33.13;100039.47;5116204;28;20166;-92
2022/03/22 08:33:07;;;;;;;3.17;1.87;;;;;;;13.97;33.63;100027.19;5116068;28;20185;-91
2022/03/22 08:35:33;;;;;;;3.43;1.30;;;;;;;14.12;34.10;100039.56;5116162;28;20313;-89
2022/03/22 08:37:59;;;;;;;5.60;2.87;;;;;;;14.36;33.83;100021.63;5097270;28;20179;-92
2022/03/22 08:40:30;;;;;;;6.23;2.33;;;;;;;14.66;33.62;100005.91;5098038;28;20196;-92
2022/03/22 08:43:09;;;;;;;6.37;1.70;;;;;;;15.15;32.87;99993.44;5098921;28;20236;-93
2022/03/22 08:45:36;;;;;;;5.80;2.77;;;;;;;15.22;34.11;99989.50;5116136;28;20155;-94
2022/03/22 08:48:09;;;;;;;3.03;1.80;;;;;;;15.13;33.24;100000.59;5097362;28;20192;-94
2022/03/22 08:50:38;;;;;;;4.00;1.60;;;;;;;15.23;33.21;99991.19;5097807;28;20168;-91
2022/03/22 08:53:05;;;;;;;2.33;1.10;;;;;;;15.16;33.45;99979.28;5115255;28;20176;-90
2022/03/22 08:55:30;;;;;;;4.00;1.77;;;;;;;14.85;33.55;99996.03;5115275;28;20172;-88
2022/03/22 08:57:56;;;;;;;5.37;2.13;;;;;;;14.42;34.47;99996.69;5115100;28;20178;-88
2022/03/22 09:00:34;;;;;;;4.07;1.57;;;;;;;14.13;34.75;100012.28;5115749;28;20253;-90
2022/03/22 09:03:01;;;;;;;2.63;1.40;;;;;;;13.81;35.22;100015.75;5097647;28;20174;-91
2022/03/22 09:08:10;;;;;;;4.53;1.33;;;;;;;13.33;36.03;100012.97;5115576;28;20190;-93
2022/03/22 09:10:36;;;;;;;5.33;2.47;;;;;;;13.53;36.09;100010.19;5114835;28;20169;-90
2022/03/22 09:13:04;;;;;;;5.10;2.10;;;;;;;13.46;35.87;100000.91;5114930;28;20218;-91
2022/03/22 09:15:30;;;;;;;1.90;1.10;;;;;;;13.37;36.18;99998.72;5097024;28;20186;-94
2022/03/22 09:17:57;;;;;;;4.27;1.83;;;;;;;13.33;36.63;99992.78;5097018;28;20657;-89
2022/03/22 09:20:31;;;;;;;7.03;1.77;;;;;;;13.36;36.27;99994.41;5114543;28;20176;-91
2022/03/22 09:22:57;;;;;;;8.57;2.93;;;;;;;13.50;36.21;99998.03;5097785;28;20164;-91
2022/03/22 09:25:22;;;;;;;4.60;2.07;;;;;;;13.50;35.80;99994.53;5114839;28;20716;-89
2022/03/22 09:27:47;;;;;;;5.83;2.67;;;;;;;13.36;36.25;99994.41;5096677;28;20286;-90
2022/03/22 09:30:13;;;;;;;10.27;2.50;;;;;;;13.40;36.52;99988.88;5114622;28;20232;-90
2022/03/22 09:32:42;;;;;;;3.13;1.70;;;;;;;13.67;36.00;99977.88;5114542;28;20653;-90
2022/03/22 09:35:10;;;;;;;8.57;1.40;;;;;;;13.38;36.46;99979.38;5096571;28;20192;-92
2022/03/22 09:37:41;;;;;;;3.87;1.73;;;;;;;13.42;36.56;99992.28;5115082;28;20256;-90
2022/03/22 09:40:08;;;;;;;6.03;1.67;;;;;;;13.35;36.61;99968.97;5096600;28;20167;-94
2022/03/22 09:42:38;;;;;;;5.00;1.80;;;;;;;13.45;36.58;99971.06;5097133;28;20177;-91
2022/03/22 09:45:08;;;;;;;5.43;1.93;;;;;;;13.44;36.95;99972.00;5114291;28;20166;-90
2022/03/22 09:47:37;;;;;;;2.07;0.80;;;;;;;13.49;36.35;99964.69;5114719;28;20240;-94
2022/03/22 09:50:10;;;;;;;2.97;1.57;;;;;;;13.54;36.22;99956.59;5095653;28;20286;-91
2022/03/22 09:52:37;;;;;;;2.87;2.07;;;;;;;14.10;36.91;99964.97;5114620;28;20175;-89
2022/03/22 09:55:05;;;;;;;5.67;2.40;;;;;;;14.42;35.39;99942.16;5114117;28;20182;-89
2022/03/22 09:57:30;;;;;;;4.63;2.17;;;;;;;14.77;35.48;99940.19;5096005;28;20192;-91
2022/03/22 09:59:56;;;;;;;10.43;2.40;;;;;;;15.22;34.00;99937.56;5096214;28;20171;-90
2022/03/22 10:02:32;;;;;;;2.67;1.83;;;;;;;15.08;33.18;99919.00;5114364;28;20175;-94
2022/03/22 10:04:58;;;;;;;6.10;2.17;;;;;;;15.02;33.72;99939.63;5113338;28;20538;-89
2022/03/22 10:07:24;;;;;;;5.90;2.17;;;;;;;15.29;34.26;99936.22;5113964;28;20180;-91
2022/03/22 10:09:56;;;;;;;4.60;2.20;;;;;;;15.06;33.30;99931.47;5096148;28;20234;-93
2022/03/22 10:12:32;;;;;;;7.27;1.70;;;;;;;15.02;33.54;99923.78;5113733;28;20198;-90
2022/03/22 10:15:11;;;;;;;4.40;2.27;;;;;;;15.00;33.13;99913.31;5095962;28;20539;-91
2022/03/22 10:17:38;;;;;;;5.60;2.10;;;;;;;15.12;32.96;99924.97;5114099;28;20179;-89
2022/03/22 10:20:11;;;;;;;5.77;1.97;;;;;;;15.53;33.58;99912.81;5113882;28;20236;-89
2022/03/22 10:22:37;;;;;;;5.37;2.00;;;;;;;15.42;32.89;99911.72;5114246;28;20235;-89
2022/03/22 10:25:05;;;;;;;7.00;2.33;;;;;;;15.82;33.08;99900.47;5113765;28;20175;-90
2022/03/22 10:27:36;;;;;;;5.23;1.83;;;;;;;15.83;32.38;99896.84;5095656;28;20176;-91
2022/03/22 10:30:07;;;;;;;3.40;1.63;;;;;;;15.77;31.62;99887.53;5113923;28;20164;-94
2022/03/22 10:32:42;;;;;;;4.33;2.07;;;;;;;15.96;32.05;99889.88;5095504;28;20628;-89
2022/03/22 10:35:17;;;;;;;3.40;1.70;;;;;;;16.39;32.16;99872.13;5113737;28;20630;-89
2022/03/22 10:37:47;;;;;;;4.33;2.30;;;;;;;16.27;31.04;99873.75;5095650;28;20517;-90
2022/03/22 10:40:32;;;;;;;4.87;1.90;;;;;;;15.96;31.55;99887.22;5095845;28;20191;-89
2022/03/22 10:43:03;;;;;;;7.33;2.47;;;;;;;16.43;31.92;99866.53;5113634;28;20524;-88
2022/03/22 10:46:02;;;;;;;5.60;1.93;;;;;;;16.73;31.27;99874.31;5113794;28;20207;-96
2022/03/22 10:48:34;;;;;;;3.57;1.73;;;;;;;16.56;31.11;99875.41;5113557;28;20190;-89
2022/03/22 10:51:01;;;;;;;4.60;1.90;;;;;;;16.57;30.44;99865.66;5113911;28;20196;-89
2022/03/22 10:53:29;;;;;;;4.57;1.93;;;;;;;16.64;30.89;99861.66;5113382;28;20208;-89
2022/03/22 10:55:57;;;;;;;3.67;1.93;;;;;;;16.80;31.03;99856.19;5113504;28;20205;-89
2022/03/22 10:58:27;;;;;;;6.50;2.67;;;;;;;16.76;31.40;99852.06;5095398;28;20194;-92
2022/03/22 11:00:59;;;;;;;4.73;2.60;;;;;;;16.85;31.47;99839.06;5113405;28;20168;-91
2022/03/22 11:03:29;;;;;;;3.93;1.57;;;;;;;16.81;31.25;99842.88;5098061;28;20179;-89
2022/03/22 11:05:57;;;;;;;4.93;1.30;;;;;;;16.39;30.52;99838.59;5099551;28;20170;-91
2022/03/22 11:08:27;;;;;;;5.23;1.50;;;;;;;16.51;30.66;99839.56;5099344;28;20200;-93
2022/03/22 11:10:54;;;;;;;6.00;2.20;;;;;;;17.08;30.92;99837.53;5099162;28;20265;-90
2022/03/22 11:13:21;;;;;;;4.83;2.63;;;;;;;17.02;30.28;99832.63;5117202;28;20191;-90
2022/03/22 11:15:51;;;;;;;3.10;1.70;;;;;;;16.88;29.57;99828.25;5099538;28;20178;-92
2022/03/22 11:18:19;;;;;;;9.43;2.73;;;;;;;17.12;30.86;99823.09;5098904;28;20183;-90
2022/03/22 11:21:15;;;;;;;17.70;2.40;;;;;;;16.76;30.01;99828.25;5117398;28;20174;-92
2022/03/22 11:23:42;;;;;;;8.60;3.10;;;;;;;16.41;31.02;99836.69;5116640;28;20636;-90
2022/03/22 11:26:17;;;;;;;4.50;2.67;;;;;;;16.54;30.62;99836.75;5099777;28;20619;-94
2022/03/22 11:28:49;;;;;;;7.47;2.87;;;;;;;16.51;30.98;99821.03;5117729;28;20197;-90
2022/03/22 11:31:20;;;;;;;4.73;1.50;;;;;;;16.14;30.61;99833.16;5117766;28;20164;-94
2022/03/22 11:36:43;;;;;;;6.87;2.40;;;;;;;16.19;31.02;99830.25;5117541;28;20565;-92
2022/03/22 11:39:09;;;;;;;3.57;2.07;;;;;;;15.98;31.37;99821.88;5117831;28;20170;-90
2022/03/22 11:44:35;;;;;;;6.90;2.73;;;;;;;16.34;30.56;99811.56;5116727;28;20171;-89
2022/03/22 11:47:17;;;;;;;7.73;3.10;;;;;;;16.28;31.12;99804.03;5098724;28;20161;-91
2022/03/22 11:50:02;;;;;;;4.50;1.77;;;;;;;16.04;30.98;99802.97;5116849;28;20210;-91
2022/03/22 11:52:39;;;;;;;7.70;2.30;;;;;;;15.76;31.89;99787.16;5099200;28;20179;-89
2022/03/22 11:55:16;;;;;;;5.33;2.33;;;;;;;15.44;32.50;99804.16;5117700;28;20253;-91
2022/03/22 11:57:49;;;;;;;4.63;2.10;;;;;;;15.65;32.67;99790.50;5117249;28;20207;-94
2022/03/22 12:00:20;;;;;;;3.20;1.80;;;;;;;15.75;32.20;99780.19;5116655;28;20157;-89
2022/03/22 12:02:51;;;;;;;4.53;2.03;;;;;;;15.67;31.92;99774.56;5116768;28;20160;-88
2022/03/22 12:05:18;;;;;;;8.70;2.20;;;;;;;15.65;32.64;99760.56;5098619;28;20199;-89